Time;durP1;ratioP1;P1;durP2;ratioP2;P2;SDS_P1;SDS_P2;PMS_P1;PMS_P2;Temp;Humidity;BMP_temperature;BMP_pressure;BME280_temperature;BME280_humidity;BME280_pressure;Samples;Min_cycle;Max_cycle;Signal;HPM_P1;HPM_P2
2023/04/29 00:01:57;;;;;;;7.70;4.45;;;12.80;99.90;;;12.00;100.00;101343.16;4138832;28;20031;-72
2023/04/29 00:03:58;;;;;;;7.43;5.03;;;12.80;99.90;;;11.91;100.00;101330.84;4138930;28;20026;-72
2023/04/29 00:06:00;;;;;;;8.15;4.85;;;12.70;99.90;;;11.97;100.00;101337.34;4138877;28;20022;-73
2023/04/29 00:08:01;;;;;;;7.53;5.00;;;12.80;99.90;;;11.97;100.00;101343.47;4137840;28;20027;-72
2023/04/29 00:10:02;;;;;;;8.63;4.70;;;12.80;99.90;;;11.79;100.00;101312.69;4134447;28;20405;-72
2023/04/29 00:12:03;;;;;;;5.75;5.13;;;12.70;99.90;;;11.74;100.00;101313.13;4138852;28;20175;-72
2023/04/29 00:14:04;;;;;;;9.05;5.38;;;12.70;99.90;;;11.76;100.00;101324.41;4137811;28;20034;-72
2023/04/29 00:16:06;;;;;;;7.97;4.82;;;12.70;99.90;;;11.73;100.00;101316.78;4130972;28;20033;-72
2023/04/29 00:18:08;;;;;;;9.52;5.53;;;12.70;99.90;;;11.74;100.00;101320.25;4138891;28;20406;-72
2023/04/29 00:20:10;;;;;;;11.30;5.72;;;12.70;99.90;;;11.79;100.00;101332.03;4136644;28;20026;-72
2023/04/29 00:22:11;;;;;;;7.00;5.85;;;12.70;99.90;;;11.83;100.00;101332.53;4122833;28;20031;-72
2023/04/29 00:24:12;;;;;;;11.57;6.88;;;12.60;99.90;;;11.68;100.00;101308.41;4137473;28;20033;-72
2023/04/29 00:26:13;;;;;;;8.00;5.80;;;12.60;99.90;;;11.72;100.00;101315.09;4133187;28;20142;-72
2023/04/29 00:28:14;;;;;;;6.30;5.40;;;12.60;99.90;;;11.75;100.00;101311.31;4136012;28;20026;-72
2023/04/29 00:30:15;;;;;;;6.20;4.97;;;12.60;99.90;;;11.75;100.00;101322.72;4126341;28;20089;-72
2023/04/29 00:32:16;;;;;;;7.15;5.55;;;12.60;99.90;;;11.81;100.00;101322.13;4138687;28;20495;-72
2023/04/29 00:34:17;;;;;;;7.65;5.57;;;12.60;99.90;;;11.81;100.00;101323.94;4121385;28;20042;-72
2023/04/29 00:36:18;;;;;;;6.15;5.32;;;12.60;99.90;;;11.78;100.00;101324.25;4119283;28;20026;-72
2023/04/29 00:38:20;;;;;;;7.70;6.05;;;12.60;99.90;;;11.70;100.00;101322.34;4125681;28;20034;-72
2023/04/29 00:40:20;;;;;;;7.53;5.20;;;12.60;99.90;;;11.68;100.00;101319.81;4137212;28;20026;-72
2023/04/29 00:42:21;;;;;;;8.57;4.88;;;12.60;99.90;;;11.82;100.00;101336.19;4130718;28;20030;-72
2023/04/29 00:44:22;;;;;;;8.82;6.07;;;12.60;99.90;;;11.89;100.00;101345.16;4135034;28;20082;-72
2023/04/29 00:46:23;;;;;;;7.57;5.50;;;12.70;99.90;;;11.80;100.00;101333.69;4153388;28;20037;-72
2023/04/29 00:48:24;;;;;;;6.53;5.55;;;12.60;99.90;;;11.81;100.00;101340.63;4121229;28;20034;-72
2023/04/29 00:50:26;;;;;;;6.43;5.15;;;12.60;99.90;;;11.77;100.00;101333.97;4137211;28;20034;-72
2023/04/29 00:52:32;;;;;;;9.15;5.80;;;12.60;99.90;;;11.76;100.00;101345.56;4138264;28;20022;-72
2023/04/29 00:54:34;;;;;;;7.07;5.20;;;12.60;99.90;;;11.74;100.00;101344.03;4137025;28;20076;-72
2023/04/29 00:56:36;;;;;;;5.95;5.28;;;12.60;99.90;;;11.58;100.00;101334.91;4137046;28;20497;-72
2023/04/29 00:58:38;;;;;;;8.32;5.95;;;12.60;99.90;;;11.62;100.00;101343.34;4138143;28;20030;-72
2023/04/29 01:00:41;;;;;;;6.68;5.75;;;12.50;99.90;;;11.68;100.00;101354.16;4138113;28;20034;-72
2023/04/29 01:02:44;;;;;;;5.43;4.82;;;12.50;99.90;;;11.60;100.00;101342.69;4137086;28;20027;-72
2023/04/29 01:04:45;;;;;;;6.35;5.47;;;12.50;99.90;;;11.65;100.00;101340.41;4129627;28;20579;-72
2023/04/29 01:07:17;;;;;;;6.18;4.88;;;12.50;99.90;;;11.68;100.00;101340.13;4134162;28;20056;-72
2023/04/29 01:10:03;;;;;;;6.22;5.22;;;12.50;99.90;;;11.64;100.00;101330.84;4111355;28;20502;-72
2023/04/29 01:12:27;;;;;;;;;;;12.50;99.90;;;11.64;100.00;101344.91;4103285;28;20031;-72
2023/04/29 01:14:28;;;;;;;7.50;5.45;;;12.50;99.90;;;11.50;100.00;101326.88;4112440;28;19953;-72
2023/04/29 01:16:50;;;;;;;7.78;5.60;;;12.50;99.90;;;11.59;100.00;101357.69;4091379;28;20051;-72
2023/04/29 01:19:00;;;;;;;8.65;5.53;;;12.40;99.90;;;11.53;100.00;101342.44;4141541;28;20062;-72
2023/04/29 01:21:01;;;;;;;7.03;4.93;;;12.40;99.90;;;11.53;100.00;101339.78;4129550;28;20033;-72
2023/04/29 01:23:02;;;;;;;5.88;4.55;;;12.40;99.90;;;11.65;100.00;101356.28;4137884;28;20073;-72
2023/04/29 01:25:05;;;;;;;6.03;5.10;;;12.40;99.90;;;11.60;100.00;101361.19;4136431;28;20027;-72
2023/04/29 01:27:28;;;;;;;5.22;4.40;;;12.40;99.90;;;11.44;100.00;101343.31;4110283;28;20038;-72
2023/04/29 01:29:50;;;;;;;6.05;4.32;;;12.40;99.90;;;11.37;100.00;101344.06;4136515;28;20510;-72
2023/04/29 01:32:04;;;;;;;8.57;4.57;;;12.30;99.90;;;11.39;100.00;101353.50;4125360;28;20026;-72
2023/04/29 01:34:10;;;;;;;6.47;4.30;;;12.30;99.90;;;11.32;100.00;101365.63;4152931;28;20033;-72
2023/04/29 01:36:40;;;;;;;6.32;3.92;;;12.20;99.90;;;11.26;100.00;101353.00;4134687;28;20065;-72
2023/04/29 01:38:52;;;;;;;5.32;4.05;;;12.20;99.90;;;11.22;100.00;101349.00;4120316;28;20459;-72
2023/04/29 01:41:11;;;;;;;5.72;3.33;;;12.10;99.90;;;11.18;100.00;101352.91;4136686;28;20034;-72
2023/04/29 01:43:14;;;;;;;4.93;3.85;;;12.10;99.90;;;11.19;100.00;101343.16;4131405;28;20125;-73
2023/04/29 01:45:17;;;;;;;5.65;4.13;;;12.10;99.90;;;11.28;100.00;101368.72;4128361;28;20050;-72
2023/04/29 01:47:18;;;;;;;4.82;3.80;;;12.10;99.90;;;11.31;100.00;101373.69;4132761;28;20461;-72
2023/04/29 01:49:27;;;;;;;4.32;3.53;;;12.10;99.90;;;11.31;100.00;101369.25;4122815;28;20022;-72
2023/04/29 01:51:28;;;;;;;5.32;3.70;;;12.10;99.90;;;11.20;100.00;101360.69;4121397;28;20033;-72
2023/04/29 01:53:29;;;;;;;4.45;3.53;;;12.10;99.90;;;11.21;100.00;101364.97;4121359;28;20069;-73
2023/04/29 01:55:30;;;;;;;5.03;4.05;;;12.10;99.90;;;11.22;100.00;101364.00;4136056;28;20029;-72
2023/04/29 01:57:31;;;;;;;4.68;3.83;;;12.10;99.90;;;11.08;100.00;101350.28;4121064;28;20026;-72
2023/04/29 01:59:32;;;;;;;5.50;3.88;;;12.10;99.90;;;11.11;100.00;101357.91;4121239;28;20469;-72
2023/04/29 02:01:33;;;;;;;4.00;3.45;;;12.00;99.90;;;11.11;100.00;101350.00;4121197;28;20030;-72
2023/04/29 02:03:35;;;;;;;4.95;3.50;;;12.00;99.90;;;11.19;100.00;101357.22;4119859;28;20055;-72
2023/04/29 02:05:36;;;;;;;4.07;3.55;;;12.00;99.90;;;11.13;100.00;101357.78;4119667;28;20047;-72
2023/04/29 02:07:37;;;;;;;6.03;3.53;;;12.00;99.90;;;11.18;100.00;101358.19;4121003;28;20034;-72
2023/04/29 02:09:37;;;;;;;4.22;3.83;;;12.00;99.90;;;11.12;100.00;101353.47;4121329;28;20019;-72
2023/04/29 02:11:38;;;;;;;4.57;3.42;;;12.00;99.90;;;11.10;100.00;101358.91;4119855;28;20023;-72
2023/04/29 02:13:39;;;;;;;4.15;3.50;;;12.00;99.90;;;11.17;100.00;101368.91;4119865;28;20031;-72
2023/04/29 02:15:40;;;;;;;6.10;3.80;;;12.00;99.90;;;11.15;100.00;101358.47;4124362;28;20023;-72
2023/04/29 02:17:41;;;;;;;5.18;3.65;;;12.00;99.90;;;11.17;100.00;101371.53;4128372;28;20490;-72
2023/04/29 02:19:42;;;;;;;5.25;3.60;;;12.00;99.90;;;11.09;100.00;101365.16;4136763;28;20375;-72
2023/04/29 02:21:43;;;;;;;5.05;3.65;;;12.00;99.90;;;11.05;100.00;101355.03;4136871;28;20029;-72
2023/04/29 02:23:44;;;;;;;5.15;3.63;;;12.00;99.90;;;11.04;100.00;101367.41;4118703;28;20023;-72
2023/04/29 02:25:44;;;;;;;4.70;3.58;;;12.00;99.90;;;10.97;100.00;101361.03;4126925;28;20034;-72
2023/04/29 02:27:45;;;;;;;4.75;3.80;;;11.90;99.90;;;10.97;100.00;101366.31;4136894;28;20023;-72
2023/04/29 02:29:46;;;;;;;4.60;3.50;;;11.90;99.90;;;11.06;100.00;101383.94;4135162;28;20022;-72
2023/04/29 02:31:47;;;;;;;4.53;3.67;;;11.90;99.90;;;10.95;100.00;101363.00;4131267;28;20023;-72
2023/04/29 02:33:48;;;;;;;7.22;3.85;;;11.90;99.90;;;10.87;100.00;101362.03;4120895;28;20030;-72
2023/04/29 02:35:49;;;;;;;5.22;3.60;;;11.80;99.90;;;10.98;100.00;101378.53;4130615;28;20026;-72
2023/04/29 02:37:50;;;;;;;4.75;3.45;;;11.80;99.90;;;10.93;100.00;101374.66;4135504;28;20093;-72
2023/04/29 02:39:51;;;;;;;3.92;3.15;;;11.80;99.90;;;10.83;100.00;101366.75;4119516;28;20046;-72
2023/04/29 02:41:55;;;;;;;4.43;2.92;;;11.70;99.90;;;10.81;100.00;101360.78;4110082;28;20023;-72
2023/04/29 02:43:55;;;;;;;4.70;3.10;;;11.70;99.90;;;10.79;100.00;101368.00;4125053;28;20034;-72
2023/04/29 02:45:56;;;;;;;4.25;3.13;;;11.70;99.90;;;10.76;100.00;101370.94;4120306;28;20050;-72
2023/04/29 02:47:57;;;;;;;4.25;3.40;;;11.70;99.90;;;10.80;100.00;101380.25;4107234;28;20530;-72
2023/04/29 02:49:58;;;;;;;4.00;3.30;;;11.70;99.90;;;10.84;100.00;101392.16;4127228;28;20463;-72
2023/04/29 02:51:59;;;;;;;5.13;3.30;;;11.70;99.90;;;10.63;100.00;101367.78;4151686;28;20040;-72
2023/04/29 02:54:00;;;;;;;5.38;2.92;;;11.60;99.90;;;10.79;100.00;101388.28;4136381;28;20026;-72
2023/04/29 02:56:01;;;;;;;5.18;2.90;;;11.60;99.90;;;10.80;100.00;101390.81;4136559;28;20041;-72
2023/04/29 02:58:03;;;;;;;4.22;2.50;;;11.60;99.90;;;10.71;100.00;101367.91;4118951;28;20104;-72
2023/04/29 03:00:04;;;;;;;4.53;2.88;;;11.60;99.90;;;10.82;100.00;101394.13;4112999;28;20537;-73
2023/04/29 03:02:06;;;;;;;5.28;3.05;;;11.60;99.90;;;10.78;100.00;101379.53;4132080;28;20022;-72
2023/04/29 03:04:07;;;;;;;4.85;2.85;;;11.60;99.90;;;10.76;100.00;101373.56;4136218;28;20586;-72
2023/04/29 03:06:08;;;;;;;3.20;2.60;;;11.60;99.90;;;10.74;100.00;101370.25;4136003;28;20105;-72
2023/04/29 03:08:09;;;;;;;4.30;2.25;;;11.60;99.90;;;10.81;100.00;101392.44;4134973;28;20448;-72
2023/04/29 03:10:11;;;;;;;3.50;2.42;;;11.60;99.90;;;10.79;100.00;101386.50;4136267;28;20033;-71
2023/04/29 03:12:11;;;;;;;4.82;2.20;;;11.60;99.90;;;10.72;100.00;101381.94;4136384;28;20478;-72
2023/04/29 03:14:12;;;;;;;4.97;2.22;;;11.60;99.90;;;10.65;100.00;101367.63;4135389;28;20081;-72
2023/04/29 03:16:15;;;;;;;3.67;2.58;;;11.60;99.90;;;10.67;100.00;101379.69;4129867;28;20026;-72
2023/04/29 03:18:16;;;;;;;2.40;1.88;;;11.60;99.90;;;10.67;100.00;101379.69;4134689;28;20029;-72
2023/04/29 03:20:18;;;;;;;3.80;2.50;;;11.50;99.90;;;10.59;100.00;101378.75;4131781;28;20034;-72
2023/04/29 03:22:19;;;;;;;2.83;2.13;;;11.50;99.90;;;10.50;100.00;101372.50;4135097;28;20034;-71
2023/04/29 03:24:20;;;;;;;6.38;2.90;;;11.50;99.90;;;10.57;100.00;101378.91;4128446;28;20513;-72
2023/04/29 03:26:23;;;;;;;3.08;2.30;;;11.40;99.90;;;10.44;100.00;101362.50;4134942;28;20023;-72
2023/04/29 03:28:23;;;;;;;2.75;2.25;;;11.40;99.90;;;10.55;100.00;101383.47;4136237;28;20073;-72
2023/04/29 03:30:24;;;;;;;3.58;2.50;;;11.40;99.90;;;10.57;100.00;101382.34;4136254;28;20034;-72
2023/04/29 03:32:25;;;;;;;3.50;2.55;;;11.40;99.90;;;10.44;100.00;101368.63;4134960;28;20026;-72
2023/04/29 03:34:26;;;;;;;4.70;2.20;;;11.40;99.90;;;10.53;100.00;101377.50;4131765;28;20085;-72
2023/04/29 03:36:28;;;;;;;4.13;2.80;;;11.40;99.90;;;10.49;100.00;101371.66;4134716;28;20045;-72
2023/04/29 03:38:29;;;;;;;3.22;2.60;;;11.40;99.90;;;10.49;100.00;101376.94;4124538;28;20039;-72
2023/04/29 03:40:30;;;;;;;3.80;2.67;;;11.40;99.90;;;10.59;100.00;101379.56;4134900;28;20026;-72
2023/04/29 03:42:31;;;;;;;2.80;2.35;;;11.40;99.90;;;10.55;100.00;101375.53;4132011;28;20494;-72
2023/04/29 03:44:31;;;;;;;4.03;2.60;;;11.40;99.90;;;10.50;100.00;101369.88;4120270;28;20031;-72
2023/04/29 03:46:32;;;;;;;3.58;2.13;;;11.40;99.90;;;10.63;100.00;101388.06;4118916;28;20043;-72
2023/04/29 03:48:34;;;;;;;2.97;2.10;;;11.40;99.90;;;10.64;100.00;101387.06;4127793;28;20034;-72
2023/04/29 03:50:36;;;;;;;3.17;2.50;;;11.40;99.90;;;10.65;100.00;101397.47;4146409;28;20030;-72
2023/04/29 03:52:37;;;;;;;3.78;2.15;;;11.40;99.90;;;10.59;100.00;101379.56;4135021;28;20031;-72
2023/04/29 03:54:38;;;;;;;4.50;2.25;;;11.40;99.90;;;10.50;100.00;101389.16;4134821;28;20089;-72
2023/04/29 03:56:39;;;;;;;3.20;2.00;;;11.40;99.90;;;10.47;100.00;101393.88;4128152;28;20561;-72
2023/04/29 03:58:41;;;;;;;2.47;1.85;;;11.30;99.90;;;10.39;100.00;101391.94;4134661;28;20097;-72
2023/04/29 04:00:42;;;;;;;2.55;2.08;;;11.30;99.90;;;10.38;100.00;101389.44;4150487;28;20022;-72
2023/04/29 04:02:43;;;;;;;2.85;2.00;;;11.30;99.90;;;10.37;100.00;101377.22;4129874;28;20082;-72
2023/04/29 04:04:44;;;;;;;2.53;2.00;;;11.30;99.90;;;10.35;100.00;101380.00;4118453;28;20515;-72
2023/04/29 04:06:50;;;;;;;3.28;2.22;;;11.30;99.90;;;10.33;100.00;101386.41;4119740;28;20090;-72
2023/04/29 04:08:51;;;;;;;3.25;2.17;;;11.30;99.90;;;10.26;100.00;101385.28;4132920;28;20026;-72
2023/04/29 04:10:52;;;;;;;3.33;2.10;;;11.20;99.90;;;10.32;100.00;101395.28;4123669;28;20088;-72
2023/04/29 04:12:52;;;;;;;2.83;2.10;;;11.20;99.90;;;10.22;100.00;101390.00;4135987;28;20101;-72
2023/04/29 04:14:54;;;;;;;3.17;2.28;;;11.20;99.90;;;10.25;100.00;101383.59;4135700;28;20045;-72
2023/04/29 04:16:55;;;;;;;3.35;1.90;;;11.20;99.90;;;10.28;100.00;101383.31;4134555;28;20062;-72
2023/04/29 04:18:56;;;;;;;3.28;2.22;;;11.20;99.90;;;10.25;100.00;101392.34;4134477;28;20022;-72
2023/04/29 04:20:56;;;;;;;3.38;2.30;;;11.20;99.90;;;10.23;100.00;101375.00;4127269;28;20027;-72
2023/04/29 04:22:57;;;;;;;3.50;1.75;;;11.20;99.90;;;10.36;100.00;101407.22;4135736;28;20031;-72
2023/04/29 04:24:58;;;;;;;2.80;1.60;;;11.20;99.90;;;10.29;100.00;101396.38;4133895;28;20016;-72
2023/04/29 04:26:59;;;;;;;2.55;1.92;;;11.20;99.90;;;10.26;100.00;101385.28;4135774;28;20034;-72
2023/04/29 04:29:01;;;;;;;2.97;2.03;;;11.20;99.90;;;10.33;100.00;101413.59;4150558;28;20033;-72
2023/04/29 04:31:02;;;;;;;2.25;1.63;;;11.20;99.90;;;10.27;100.00;101408.88;4134616;28;20479;-72
2023/04/29 04:33:03;;;;;;;2.15;1.50;;;11.20;99.90;;;10.29;100.00;101428.03;4132916;28;20077;-72
2023/04/29 04:35:05;;;;;;;3.33;1.60;;;11.10;99.90;;;10.15;100.00;101409.13;4123609;28;20490;-72
2023/04/29 04:37:07;;;;;;;1.70;1.10;;;11.10;99.90;;;10.10;100.00;101419.22;4135680;28;20026;-73
2023/04/29 04:39:08;;;;;;;1.98;1.10;;;11.00;99.90;;;10.05;100.00;101402.97;4134428;28;20035;-72
2023/04/29 04:41:08;;;;;;;1.90;1.05;;;11.00;99.90;;;10.15;100.00;101420.53;4132017;28;20077;-72
2023/04/29 04:43:09;;;;;;;2.10;1.42;;;11.00;99.90;;;10.01;100.00;101403.25;4130462;28;20031;-72
2023/04/29 04:45:10;;;;;;;1.98;1.30;;;11.00;99.90;;;9.95;100.00;101401.16;4119620;28;20402;-72
2023/04/29 04:47:11;;;;;;;2.58;1.50;;;10.90;99.90;;;9.94;100.00;101401.31;4130309;28;20105;-72
2023/04/29 04:49:12;;;;;;;2.13;1.40;;;10.90;99.90;;;9.93;100.00;101405.75;4135688;28;20023;-72
2023/04/29 04:51:13;;;;;;;1.90;1.10;;;10.90;99.90;;;9.98;100.00;101419.34;4137042;28;20118;-72
2023/04/29 04:53:14;;;;;;;2.70;1.48;;;10.90;99.90;;;9.95;100.00;101409.06;4138640;28;20085;-72
2023/04/29 04:55:15;;;;;;;2.70;1.60;;;10.90;99.90;;;9.91;100.00;101415.59;4130221;28;20029;-72
2023/04/29 04:57:16;;;;;;;2.30;1.60;;;10.90;99.90;;;9.95;100.00;101414.34;4137395;28;20027;-72
2023/04/29 04:59:17;;;;;;;2.13;1.30;;;10.90;99.90;;;10.08;100.00;101424.63;4138677;28;20030;-72
2023/04/29 05:01:17;;;;;;;3.00;1.80;;;10.90;99.90;;;9.97;100.00;101411.56;4137224;28;20038;-72
2023/04/29 05:03:18;;;;;;;2.63;1.67;;;10.90;99.90;;;9.95;100.00;101406.44;4130385;28;20505;-72
2023/04/29 05:05:19;;;;;;;3.83;1.55;;;10.90;99.90;;;10.10;100.00;101416.56;4152893;28;20069;-72
2023/04/29 05:07:20;;;;;;;2.50;1.63;;;10.90;99.90;;;10.07;100.00;101408.94;4138017;28;20027;-72
2023/04/29 05:09:21;;;;;;;3.33;1.88;;;11.00;99.90;;;10.13;100.00;101422.44;4136897;28;20057;-72
2023/04/29 05:11:22;;;;;;;2.75;1.75;;;11.00;99.90;;;10.14;100.00;101410.09;4136857;28;20038;-72
2023/04/29 05:13:24;;;;;;;3.53;1.80;;;11.00;99.90;;;10.23;100.00;101428.56;4137964;28;20374;-72
2023/04/29 05:15:26;;;;;;;3.00;2.10;;;11.00;99.90;;;10.22;100.00;101437.44;4135190;28;20085;-72
2023/04/29 05:17:27;;;;;;;3.30;2.22;;;11.00;99.90;;;10.20;100.00;101430.66;4126572;28;20030;-72
2023/04/29 05:19:28;;;;;;;4.18;1.95;;;11.00;99.90;;;10.24;100.00;101430.25;4140762;28;20038;-71
2023/04/29 05:21:30;;;;;;;3.75;2.22;;;11.00;99.90;;;10.22;100.00;101431.34;4121825;28;20541;-72
2023/04/29 05:23:31;;;;;;;3.90;2.42;;;11.10;99.90;;;10.28;100.00;101444.81;4136341;28;20023;-72
2023/04/29 05:25:32;;;;;;;6.20;2.72;;;11.10;99.90;;;10.13;100.00;101424.22;4126262;28;20106;-72
2023/04/29 05:27:33;;;;;;;3.90;2.42;;;11.10;99.90;;;10.21;100.00;101443.72;4136745;28;20449;-72
2023/04/29 05:29:33;;;;;;;3.00;2.17;;;11.10;99.90;;;10.22;100.00;101431.34;4145006;28;20094;-72
2023/04/29 05:31:34;;;;;;;3.50;2.20;;;11.10;99.90;;;10.29;100.00;101443.00;4136647;28;20429;-72
2023/04/29 05:33:35;;;;;;;4.07;2.67;;;11.10;99.90;;;10.25;100.00;101439.81;4136602;28;20033;-72
2023/04/29 05:35:36;;;;;;;3.95;2.35;;;11.10;99.90;;;10.28;100.00;101430.78;4136284;28;20034;-72
2023/04/29 05:37:37;;;;;;;3.67;2.35;;;11.20;99.90;;;10.38;100.00;101432.47;4136434;28;20030;-72
2023/04/29 05:39:38;;;;;;;3.13;2.17;;;11.20;99.90;;;10.43;100.00;101439.97;4136487;28;20549;-72
2023/04/29 05:41:39;;;;;;;6.53;2.60;;;11.20;99.90;;;10.49;100.00;101444.69;4136648;28;20031;-72
2023/04/29 05:43:40;;;;;;;3.45;2.33;;;11.30;99.90;;;10.42;100.00;101439.13;4127941;28;20034;-72
2023/04/29 05:45:41;;;;;;;4.15;2.40;;;11.30;99.90;;;10.52;100.00;101452.31;4132984;28;20050;-72
2023/04/29 05:47:42;;;;;;;4.15;2.83;;;11.30;99.90;;;10.53;100.00;101456.63;4136431;28;20038;-72
2023/04/29 05:49:42;;;;;;;4.60;2.50;;;11.30;99.90;;;10.55;100.00;101449.41;4131023;28;20482;-72
2023/04/29 05:51:43;;;;;;;3.60;2.47;;;11.40;99.90;;;10.44;100.00;101442.47;4128290;28;20022;-72
2023/04/29 05:53:44;;;;;;;3.40;2.60;;;11.40;99.90;;;10.57;100.00;101464.13;4132695;28;20022;-72
2023/04/29 05:55:45;;;;;;;4.22;2.55;;;11.40;99.90;;;10.69;100.00;101472.75;4136070;28;20058;-72
2023/04/29 05:57:46;;;;;;;5.15;2.47;;;11.50;99.90;;;10.69;100.00;101472.75;4124727;28;20023;-72
2023/04/29 05:59:47;;;;;;;4.50;3.13;;;11.50;99.90;;;10.62;100.00;101450.53;4127197;28;20114;-71
2023/04/29 06:01:48;;;;;;;5.53;2.50;;;11.50;99.90;;;10.70;100.00;101469.13;4114695;28;20510;-72
2023/04/29 06:03:49;;;;;;;4.57;2.50;;;11.60;99.90;;;10.79;100.00;101478.00;4136160;28;20399;-72
2023/04/29 06:05:50;;;;;;;3.97;2.67;;;11.60;99.90;;;10.75;100.00;101471.38;4123854;28;20065;-72
2023/04/29 06:07:51;;;;;;;4.05;2.20;;;11.60;99.90;;;10.74;100.00;101459.97;4119828;28;20065;-72
2023/04/29 06:09:52;;;;;;;3.65;2.33;;;11.60;99.90;;;10.86;100.00;101474.69;4135469;28;20045;-72
2023/04/29 06:11:53;;;;;;;3.13;2.20;;;11.60;99.90;;;10.81;100.00;101460.25;4134628;28;20099;-72
2023/04/29 06:13:54;;;;;;;3.35;2.28;;;11.70;99.90;;;10.98;100.00;101485.94;4137421;28;20386;-72
2023/04/29 06:15:55;;;;;;;3.22;2.15;;;11.70;99.90;;;10.80;100.00;101453.31;4137134;28;20075;-72
2023/04/29 06:17:56;;;;;;;4.40;2.22;;;11.70;99.90;;;10.92;100.00;101494.41;4119678;28;20114;-72
2023/04/29 06:19:57;;;;;;;3.90;2.47;;;11.70;99.90;;;10.89;100.00;101484.13;4136776;28;20084;-72
2023/04/29 06:21:57;;;;;;;4.05;2.13;;;11.70;99.90;;;11.00;100.00;101492.75;4135969;28;20437;-72
2023/04/29 06:23:58;;;;;;;3.92;2.28;;;11.80;99.90;;;10.95;100.00;101478.28;4135883;28;20019;-72
2023/04/29 06:25:59;;;;;;;4.55;2.55;;;11.80;99.90;;;11.03;100.00;101476.63;4135984;28;20474;-72
2023/04/29 06:28:00;;;;;;;3.35;2.40;;;11.90;99.90;;;10.94;100.00;101464.25;4129151;28;20046;-72
2023/04/29 06:30:01;;;;;;;3.47;2.40;;;11.90;99.90;;;11.09;100.00;101472.56;4124070;28;20025;-72
2023/04/29 06:32:02;;;;;;;2.97;2.03;;;11.90;99.90;;;11.09;100.00;101464.66;4136899;28;20026;-72
2023/04/29 06:34:04;;;;;;;3.30;2.22;;;12.00;99.90;;;11.16;100.00;101486.88;4136800;28;20101;-72
2023/04/29 06:36:05;;;;;;;2.83;1.85;;;12.00;99.90;;;11.15;100.00;101468.53;4135278;28;20027;-72
2023/04/29 06:38:09;;;;;;;3.75;2.00;;;12.10;99.90;;;11.24;100.00;101479.06;4135255;28;20145;-72
2023/04/29 06:40:11;;;;;;;3.10;1.67;;;12.10;99.90;;;11.34;100.00;101479.06;4135769;28;20026;-73
2023/04/29 06:42:12;;;;;;;3.13;1.75;;;12.10;99.90;;;11.36;100.00;101477.94;4135508;28;20410;-73
2023/04/29 06:44:13;;;;;;;2.58;1.77;;;12.30;99.90;;;11.27;100.00;101483.25;4122698;28;20041;-72
2023/04/29 06:46:14;;;;;;;2.30;1.73;;;12.20;99.90;;;11.29;100.00;101497.16;4134849;28;20046;-72
2023/04/29 06:48:14;;;;;;;3.40;1.65;;;12.20;99.90;;;11.45;100.00;101492.09;4135567;28;20125;-72
2023/04/29 06:50:15;;;;;;;3.08;1.98;;;12.30;99.90;;;11.57;100.00;101491.78;4127555;28;20050;-72
2023/04/29 06:52:16;;;;;;;5.15;1.80;;;12.30;99.90;;;11.61;100.00;101487.88;4131378;28;20034;-72
2023/04/29 06:54:17;;;;;;;2.80;1.67;;;12.40;99.90;;;11.76;100.00;101488.28;4134371;28;20030;-72
2023/04/29 06:56:18;;;;;;;3.30;1.58;;;12.50;99.90;;;11.59;100.00;101476.59;4126069;28;20035;-72
2023/04/29 06:58:20;;;;;;;2.80;2.15;;;12.60;99.90;;;11.66;100.00;101493.56;4136384;28;20031;-72
2023/04/29 07:00:21;;;;;;;3.13;1.80;;;12.60;99.90;;;11.60;100.00;101503.88;4123124;28;20033;-72
2023/04/29 07:02:22;;;;;;;3.17;2.03;;;12.50;99.90;;;11.50;100.00;101479.28;4134755;28;20029;-72
2023/04/29 07:04:23;;;;;;;3.53;1.98;;;12.50;99.90;;;11.61;100.00;101494.97;4140600;28;20093;-72
2023/04/29 07:06:24;;;;;;;2.63;1.75;;;12.50;99.90;;;11.62;100.00;101483.41;4136391;28;20517;-72
2023/04/29 07:08:25;;;;;;;3.17;1.98;;;12.50;99.90;;;11.66;100.00;101479.50;4135157;28;20514;-72
2023/04/29 07:10:26;;;;;;;5.15;2.08;;;12.50;99.90;;;11.73;100.00;101490.38;4119443;28;20042;-72
2023/04/29 07:12:27;;;;;;;2.78;2.00;;;12.50;99.90;;;11.69;100.00;101497.72;4140708;28;20029;-72
2023/04/29 07:14:28;;;;;;;3.85;2.00;;;12.60;99.90;;;11.57;100.00;101501.53;4136316;28;20453;-72
2023/04/29 07:16:29;;;;;;;2.83;1.90;;;12.60;99.90;;;11.68;100.00;101497.88;4135624;28;20530;-72
2023/04/29 07:18:30;;;;;;;4.50;2.00;;;12.60;99.90;;;11.79;100.00;101511.78;4133172;28;20061;-72
2023/04/29 07:20:31;;;;;;;3.42;2.35;;;12.60;99.90;;;11.67;100.00;101512.91;4120016;28;20046;-72
2023/04/29 07:22:32;;;;;;;3.28;2.35;;;12.60;99.90;;;11.68;100.00;101506.63;4120589;28;20364;-72
2023/04/29 07:24:33;;;;;;;3.35;2.22;;;12.60;99.90;;;11.63;100.00;101485.09;4130028;28;20038;-72
2023/04/29 07:26:33;;;;;;;3.05;2.03;;;12.60;99.90;;;11.60;100.00;101490.66;4133911;28;20033;-72
2023/04/29 07:28:34;;;;;;;3.97;2.40;;;12.60;99.90;;;11.65;100.00;101515.66;4148534;28;20030;-72
2023/04/29 07:30:36;;;;;;;3.35;2.38;;;12.70;99.90;;;11.71;100.00;101509.00;4118839;28;20019;-72
2023/04/29 07:32:37;;;;;;;5.55;2.80;;;12.60;99.90;;;11.78;100.00;101514.56;4134665;28;20449;-72
2023/04/29 07:34:38;;;;;;;2.92;2.10;;;12.70;99.90;;;11.89;100.00;101522.28;4105450;28;20027;-72
2023/04/29 07:36:38;;;;;;;3.80;2.78;;;12.70;99.90;;;11.88;100.00;101507.44;4147404;28;20097;-72
2023/04/29 07:38:40;;;;;;;3.78;2.65;;;12.80;99.90;;;11.86;100.00;101515.50;4135998;28;20018;-72
2023/04/29 07:40:41;;;;;;;4.57;2.58;;;12.80;99.90;;;12.04;100.00;101537.53;4125699;28;20086;-72
2023/04/29 07:42:43;;;;;;;3.83;3.10;;;12.80;99.90;;;12.02;100.00;101513.06;4144251;28;20026;-72
2023/04/29 07:44:47;;;;;;;3.58;2.47;;;12.90;99.90;;;12.10;100.00;101531.66;4118819;28;20058;-72
2023/04/29 07:46:48;;;;;;;4.13;2.60;;;12.90;99.90;;;12.05;100.00;101517.22;4126262;28;20030;-72
2023/04/29 07:48:49;;;;;;;5.53;3.25;;;12.90;99.90;;;12.12;100.00;101513.88;4145522;28;20031;-72
2023/04/29 07:50:50;;;;;;;3.65;2.70;;;13.00;99.90;;;12.09;100.00;101514.16;4121139;28;20038;-72
2023/04/29 07:52:51;;;;;;;4.18;2.78;;;13.00;99.90;;;12.25;100.00;101528.53;4118919;28;20114;-72
2023/04/29 07:54:54;;;;;;;4.32;3.17;;;13.00;99.90;;;12.02;100.00;101521.00;4134695;28;20019;-72
2023/04/29 07:56:57;;;;;;;4.88;3.40;;;13.00;99.90;;;12.05;100.00;101535.72;4113416;28;20037;-72
2023/04/29 07:59:01;;;;;;;4.88;2.85;;;13.00;99.90;;;12.16;100.00;101531.09;4132459;28;20565;-72
2023/04/29 08:01:10;;;;;;;4.43;3.08;;;13.00;99.90;;;12.19;100.00;101537.88;4134761;28;20582;-72
2023/04/29 08:03:11;;;;;;;5.35;3.75;;;13.10;99.90;;;12.27;100.00;101537.16;4134696;28;20030;-72
2023/04/29 08:05:12;;;;;;;5.32;3.47;;;13.10;99.90;;;12.32;100.00;101540.19;4130242;28;20547;-72
2023/04/29 08:07:13;;;;;;;4.55;3.53;;;13.10;99.90;;;12.23;100.00;101546.38;4135769;28;20105;-72
2023/04/29 08:09:14;;;;;;;4.55;3.42;;;13.20;99.90;;;12.31;100.00;101543.81;4129229;28;20027;-72
2023/04/29 08:11:20;;;;;;;4.05;2.90;;;13.20;99.90;;;12.43;100.00;101532.88;4127035;28;20031;-72
2023/04/29 08:13:20;;;;;;;5.03;3.33;;;13.20;99.90;;;12.48;100.00;101535.09;4130868;28;20034;-72
2023/04/29 08:15:21;;;;;;;4.00;3.20;;;13.30;99.90;;;12.50;100.00;101535.78;4134483;28;20426;-72
2023/04/29 08:17:22;;;;;;;4.97;3.85;;;13.30;99.90;;;12.51;100.00;101542.75;4124546;28;20041;-72
2023/04/29 08:19:23;;;;;;;5.82;3.47;;;13.40;99.90;;;12.63;100.00;101550.28;4125426;28;20035;-72
2023/04/29 08:21:24;;;;;;;4.95;3.17;;;13.50;99.90;;;12.66;100.00;101533.31;4120397;28;20023;-72
2023/04/29 08:23:25;;;;;;;4.53;3.25;;;13.50;99.90;;;12.75;100.00;101543.00;4136840;28;20045;-72